PWSweather.com
Personal Weather Stations
Station Observations
KOHCLEVE171
Cleveland, OH

Cleveland, OH

Lat: 41.48646164, Lon: -81.46408081

Elevation: 1059

Station Type:

High Low Average
Temperature 56.1°F13.4°C 32.7°F0.4°C 37.9°F3.3°C
Dew Point 50.4°F10.2°C 30.2°F-1.0°C 35.0°F1.7°C
Winds 8.9 mph 14.3 kmh 0.2 mph 0.3 kmh 3.0 mph SSW4.8 kmh SSW
Wind Gusts 21.9 mph35.2 kmh 0.9 mph1.4 kmh 5.0 mph8.0 kmh
Humidity 95% 79% 89%
Pressure 30.31 in1026.4 mb 29.55 in1000.7 mb -
Precipitation 0.00 in0.0 mm - -
Hour Temp Dew Point Humidity Winds Wind Gusts Pressure Precip Precip Rate Daily Precip Total
12:03 AM 57.4°F14.1°C 53.8°F12.1°C 88% 5.1 mph SSW8.2 kmh SSW 8.1 mph13.0 kmh 29.51 in999.3 mb 0.00 in0.0 mm 0.00 in0.0 mm 0.74 in18.8 mm
12:08 AM 57.6°F14.2°C 53.4°F11.9°C 86% 12.8 mph SW20.6 kmh SW 29.3 mph47.2 kmh 29.51 in999.3 mb 0.00 in0.0 mm 0.00 in0.0 mm 0.74 in18.8 mm
12:13 AM 57.6°F14.2°C 53.1°F11.7°C 85% 7.6 mph SSW12.2 kmh SSW 14.5 mph23.3 kmh 29.52 in999.7 mb 0.00 in0.0 mm 0.00 in0.0 mm 0.74 in18.8 mm
12:18 AM 57.4°F14.1°C 52.9°F11.6°C 85% 8.1 mph SSW13.0 kmh SSW 13.2 mph21.2 kmh 29.52 in999.7 mb 0.00 in0.0 mm 0.00 in0.0 mm 0.74 in18.8 mm
12:23 AM 57.4°F14.1°C 52.9°F11.6°C 85% 10.7 mph SSW17.2 kmh SSW 23.7 mph38.1 kmh 29.51 in999.3 mb 0.00 in0.0 mm 0.00 in0.0 mm 0.74 in18.8 mm
12:28 AM 57.6°F14.2°C 52.7°F11.5°C 84% 4.3 mph S6.9 kmh S 11.6 mph18.7 kmh 29.52 in999.7 mb 0.00 in0.0 mm 0.00 in0.0 mm 0.74 in18.8 mm
12:33 AM 57.4°F14.1°C 52.5°F11.4°C 84% 6.3 mph SW10.1 kmh SW 8.7 mph14.0 kmh 29.52 in999.7 mb 0.00 in0.0 mm 0.00 in0.0 mm 0.74 in18.8 mm
12:38 AM 57.4°F14.1°C 52.5°F11.4°C 84% 3.1 mph SSW5.0 kmh SSW 9.2 mph14.8 kmh 29.53 in1000.0 mb 0.00 in0.0 mm 0.00 in0.0 mm 0.74 in18.8 mm
12:43 AM 57.0°F13.9°C 52.5°F11.4°C 85% 3.8 mph WSW6.1 kmh WSW 7.6 mph12.2 kmh 29.53 in1000.0 mb 0.00 in0.0 mm 0.00 in0.0 mm 0.74 in18.8 mm
12:48 AM 57.0°F13.9°C 52.2°F11.2°C 84% 5.4 mph WSW8.7 kmh WSW 10.7 mph17.2 kmh 29.54 in1000.3 mb 0.00 in0.0 mm 0.00 in0.0 mm 0.74 in18.8 mm
12:53 AM 56.8°F13.8°C 52.0°F11.1°C 84% 6.3 mph SSW10.1 kmh SSW 14.8 mph23.8 kmh 29.55 in1000.7 mb 0.00 in0.0 mm 0.00 in0.0 mm 0.74 in18.8 mm
01:03 AM 56.1°F13.4°C 50.4°F10.2°C 81% 7.2 mph SSW11.6 kmh SSW 16.1 mph25.9 kmh 29.55 in1000.7 mb 0.00 in0.0 mm 0.00 in0.0 mm 0.00 in0.0 mm
01:08 AM 55.9°F13.3°C 49.8°F9.9°C 80% 8.9 mph SW14.3 kmh SW 18.8 mph30.3 kmh 29.56 in1001.0 mb 0.00 in0.0 mm 0.00 in0.0 mm 0.00 in0.0 mm
01:13 AM 55.8°F13.2°C 49.6°F9.8°C 80% 5.1 mph SSW8.2 kmh SSW 9.8 mph15.8 kmh 29.56 in1001.0 mb 0.00 in0.0 mm 0.00 in0.0 mm 0.00 in0.0 mm
01:18 AM 55.6°F13.1°C 49.5°F9.7°C 80% 6.7 mph SW10.8 kmh SW 14.1 mph22.7 kmh 29.57 in1001.4 mb 0.00 in0.0 mm 0.00 in0.0 mm 0.00 in0.0 mm
01:23 AM 55.6°F13.1°C 49.5°F9.7°C 80% 5.6 mph SW9.0 kmh SW 11.9 mph19.2 kmh 29.58 in1001.7 mb 0.00 in0.0 mm 0.00 in0.0 mm 0.00 in0.0 mm
01:28 AM 55.4°F13.0°C 50.4°F10.2°C 83% 4.7 mph SW7.6 kmh SW 11.0 mph17.7 kmh 29.59 in1002.0 mb 0.00 in0.0 mm 0.00 in0.0 mm 0.00 in0.0 mm
01:33 AM 55.0°F12.8°C 50.0°F10.0°C 83% 3.1 mph SW5.0 kmh SW 7.8 mph12.6 kmh 29.59 in1002.0 mb 0.00 in0.0 mm 0.00 in0.0 mm 0.00 in0.0 mm
01:38 AM 54.7°F12.6°C 49.6°F9.8°C 83% 3.1 mph SW5.0 kmh SW 5.6 mph9.0 kmh 29.60 in1002.4 mb 0.00 in0.0 mm 0.00 in0.0 mm 0.00 in0.0 mm
01:43 AM 54.1°F12.3°C 49.1°F9.5°C 83% 6.3 mph WSW10.1 kmh WSW 12.5 mph20.1 kmh 29.61 in1002.7 mb 0.00 in0.0 mm 0.00 in0.0 mm 0.00 in0.0 mm
01:48 AM 53.8°F12.1°C 49.1°F9.5°C 84% 4.0 mph NW6.4 kmh NW 6.3 mph10.1 kmh 29.61 in1002.7 mb 0.00 in0.0 mm 0.00 in0.0 mm 0.00 in0.0 mm
01:53 AM 53.4°F11.9°C 48.7°F9.3°C 84% 5.6 mph WSW9.0 kmh WSW 13.9 mph22.4 kmh 29.62 in1003.0 mb 0.00 in0.0 mm 0.00 in0.0 mm 0.00 in0.0 mm
01:58 AM 52.9°F11.6°C 48.6°F9.2°C 85% 5.6 mph WSW9.0 kmh WSW 14.5 mph23.3 kmh 29.62 in1003.0 mb 0.00 in0.0 mm 0.00 in0.0 mm 0.00 in0.0 mm
02:03 AM 52.5°F11.4°C 48.4°F9.1°C 86% 3.6 mph SW5.8 kmh SW 8.9 mph14.3 kmh 29.63 in1003.4 mb 0.00 in0.0 mm 0.00 in0.0 mm 0.00 in0.0 mm
02:08 AM 52.2°F11.2°C 48.0°F8.9°C 86% 6.0 mph SW9.7 kmh SW 13.0 mph20.9 kmh 29.64 in1003.7 mb 0.00 in0.0 mm 0.00 in0.0 mm 0.00 in0.0 mm
02:13 AM 52.0°F11.1°C 47.7°F8.7°C 85% 5.8 mph WSW9.3 kmh WSW 10.1 mph16.3 kmh 29.65 in1004.1 mb 0.00 in0.0 mm 0.00 in0.0 mm 0.00 in0.0 mm
02:18 AM 51.6°F10.9°C 46.9°F8.3°C 84% 7.8 mph WSW12.6 kmh WSW 15.9 mph25.6 kmh 29.65 in1004.1 mb 0.00 in0.0 mm 0.00 in0.0 mm 0.00 in0.0 mm
02:23 AM 51.4°F10.8°C 46.8°F8.2°C 84% 4.9 mph W7.9 kmh W 10.7 mph17.2 kmh 29.67 in1004.7 mb 0.00 in0.0 mm 0.00 in0.0 mm 0.00 in0.0 mm
02:28 AM 50.9°F10.5°C 45.3°F7.4°C 81% 8.5 mph W13.7 kmh W 21.9 mph35.2 kmh 29.68 in1005.1 mb 0.00 in0.0 mm 0.00 in0.0 mm 0.00 in0.0 mm
02:33 AM 50.4°F10.2°C 44.8°F7.1°C 81% 6.9 mph SW11.1 kmh SW 12.1 mph19.5 kmh 29.68 in1005.1 mb 0.00 in0.0 mm 0.00 in0.0 mm 0.00 in0.0 mm
02:38 AM 50.2°F10.1°C 45.1°F7.3°C 83% 3.8 mph SW6.1 kmh SW 7.6 mph12.2 kmh 29.69 in1005.4 mb 0.00 in0.0 mm 0.00 in0.0 mm 0.00 in0.0 mm
02:43 AM 50.0°F10.0°C 44.4°F6.9°C 81% 5.8 mph SW9.3 kmh SW 13.9 mph22.4 kmh 29.69 in1005.4 mb 0.00 in0.0 mm 0.00 in0.0 mm 0.00 in0.0 mm
02:48 AM 49.8°F9.9°C 44.2°F6.8°C 81% 4.9 mph SW7.9 kmh SW 14.5 mph23.3 kmh 29.69 in1005.4 mb 0.00 in0.0 mm 0.00 in0.0 mm 0.00 in0.0 mm
02:53 AM 49.6°F9.8°C 43.3°F6.3°C 79% 4.3 mph WNW6.9 kmh WNW 9.2 mph14.8 kmh 29.70 in1005.8 mb 0.00 in0.0 mm 0.00 in0.0 mm 0.00 in0.0 mm
02:58 AM 49.5°F9.7°C 43.5°F6.4°C 80% 6.9 mph SSW11.1 kmh SSW 12.5 mph20.1 kmh 29.71 in1006.1 mb 0.00 in0.0 mm 0.00 in0.0 mm 0.00 in0.0 mm
03:03 AM 49.3°F9.6°C 43.0°F6.1°C 79% 4.7 mph SW7.6 kmh SW 10.1 mph16.3 kmh 29.71 in1006.1 mb 0.00 in0.0 mm 0.00 in0.0 mm 0.00 in0.0 mm
03:08 AM 49.3°F9.6°C 43.0°F6.1°C 79% 5.8 mph SW9.3 kmh SW 10.7 mph17.2 kmh 29.72 in1006.4 mb 0.00 in0.0 mm 0.00 in0.0 mm 0.00 in0.0 mm
03:13 AM 48.9°F9.4°C 43.0°F6.1°C 80% 7.4 mph WSW11.9 kmh WSW 13.9 mph22.4 kmh 29.73 in1006.8 mb 0.00 in0.0 mm 0.00 in0.0 mm 0.00 in0.0 mm
03:19 AM 48.7°F9.3°C 42.8°F6.0°C 80% 5.4 mph WSW8.7 kmh WSW 8.1 mph13.0 kmh 29.74 in1007.1 mb 0.00 in0.0 mm 0.00 in0.0 mm 0.00 in0.0 mm
03:29 AM 48.4°F9.1°C 42.4°F5.8°C 80% 2.9 mph WNW4.7 kmh WNW 7.4 mph11.9 kmh 29.74 in1007.1 mb 0.00 in0.0 mm 0.00 in0.0 mm 0.00 in0.0 mm
03:34 AM 48.2°F9.0°C 42.1°F5.6°C 79% 5.4 mph W8.7 kmh W 14.1 mph22.7 kmh 29.75 in1007.5 mb 0.00 in0.0 mm 0.00 in0.0 mm 0.00 in0.0 mm
03:39 AM 48.0°F8.9°C 41.9°F5.5°C 79% 5.8 mph WSW9.3 kmh WSW 10.7 mph17.2 kmh 29.76 in1007.8 mb 0.00 in0.0 mm 0.00 in0.0 mm 0.00 in0.0 mm
03:44 AM 47.7°F8.7°C 41.7°F5.4°C 80% 4.3 mph WNW6.9 kmh WNW 15.0 mph24.1 kmh 29.77 in1008.1 mb 0.00 in0.0 mm 0.00 in0.0 mm 0.00 in0.0 mm
03:49 AM 47.1°F8.4°C 42.6°F5.9°C 84% 4.0 mph WSW6.4 kmh WSW 13.9 mph22.4 kmh 29.78 in1008.5 mb 0.00 in0.0 mm 0.00 in0.0 mm 0.00 in0.0 mm
03:54 AM 46.6°F8.1°C 42.6°F5.9°C 86% 4.0 mph W6.4 kmh W 7.2 mph11.6 kmh 29.79 in1008.8 mb 0.00 in0.0 mm 0.00 in0.0 mm 0.00 in0.0 mm
03:59 AM 46.0°F7.8°C 42.6°F5.9°C 88% 5.8 mph WSW9.3 kmh WSW 18.8 mph30.3 kmh 29.79 in1008.8 mb 0.00 in0.0 mm 0.00 in0.0 mm 0.00 in0.0 mm
04:04 AM 45.7°F7.6°C 42.6°F5.9°C 89% 7.2 mph WSW11.6 kmh WSW 21.5 mph34.6 kmh 29.80 in1009.1 mb 0.00 in0.0 mm 0.00 in0.0 mm 0.00 in0.0 mm
04:09 AM 45.3°F7.4°C 42.3°F5.7°C 89% 4.5 mph W7.2 kmh W 10.1 mph16.3 kmh 29.80 in1009.1 mb 0.00 in0.0 mm 0.00 in0.0 mm 0.00 in0.0 mm
04:14 AM 45.1°F7.3°C 42.1°F5.6°C 89% 4.7 mph WSW7.6 kmh WSW 8.1 mph13.0 kmh 29.80 in1009.1 mb 0.00 in0.0 mm 0.00 in0.0 mm 0.00 in0.0 mm
04:19 AM 45.0°F7.2°C 41.9°F5.5°C 89% 3.1 mph SW5.0 kmh SW 5.4 mph8.7 kmh 29.81 in1009.5 mb 0.00 in0.0 mm 0.00 in0.0 mm 0.00 in0.0 mm
04:24 AM 44.8°F7.1°C 41.7°F5.4°C 89% 2.2 mph NNW3.5 kmh NNW 5.8 mph9.3 kmh 29.82 in1009.8 mb 0.00 in0.0 mm 0.00 in0.0 mm 0.00 in0.0 mm
04:29 AM 44.6°F7.0°C 41.5°F5.3°C 89% 5.4 mph NW8.7 kmh NW 8.9 mph14.3 kmh 29.82 in1009.8 mb 0.00 in0.0 mm 0.00 in0.0 mm 0.00 in0.0 mm
04:34 AM 44.2°F6.8°C 41.0°F5.0°C 88% 8.7 mph N14.0 kmh N 14.3 mph23.0 kmh 29.84 in1010.5 mb 0.00 in0.0 mm 0.00 in0.0 mm 0.00 in0.0 mm
04:39 AM 42.4°F5.8°C 39.2°F4.0°C 88% 5.8 mph NW9.3 kmh NW 9.8 mph15.8 kmh 29.85 in1010.8 mb 0.00 in0.0 mm 0.00 in0.0 mm 0.00 in0.0 mm
04:44 AM 41.5°F5.3°C 38.5°F3.6°C 89% 4.7 mph NW7.6 kmh NW 7.6 mph12.2 kmh 29.85 in1010.8 mb 0.00 in0.0 mm 0.00 in0.0 mm 0.00 in0.0 mm
04:49 AM 41.0°F5.0°C 38.3°F3.5°C 90% 6.9 mph N11.1 kmh N 13.4 mph21.6 kmh 29.86 in1011.2 mb 0.00 in0.0 mm 0.00 in0.0 mm 0.00 in0.0 mm
04:54 AM 40.5°F4.7°C 37.8°F3.2°C 90% 4.5 mph N7.2 kmh N 10.1 mph16.3 kmh 29.87 in1011.5 mb 0.00 in0.0 mm 0.00 in0.0 mm 0.00 in0.0 mm
04:59 AM 40.1°F4.5°C 37.9°F3.3°C 92% 5.6 mph W9.0 kmh W 10.3 mph16.6 kmh 29.87 in1011.5 mb 0.00 in0.0 mm 0.00 in0.0 mm 0.00 in0.0 mm
05:04 AM 39.9°F4.4°C 37.2°F2.9°C 90% 4.5 mph WNW7.2 kmh WNW 8.3 mph13.4 kmh 29.87 in1011.5 mb 0.00 in0.0 mm 0.00 in0.0 mm 0.00 in0.0 mm
05:09 AM 39.7°F4.3°C 37.4°F3.0°C 91% 7.2 mph W11.6 kmh W 15.0 mph24.1 kmh 29.88 in1011.9 mb 0.00 in0.0 mm 0.00 in0.0 mm 0.00 in0.0 mm
05:14 AM 39.6°F4.2°C 37.2°F2.9°C 91% 5.4 mph NW8.7 kmh NW 14.3 mph23.0 kmh 29.88 in1011.9 mb 0.00 in0.0 mm 0.00 in0.0 mm 0.00 in0.0 mm
05:19 AM 39.0°F3.9°C 36.7°F2.6°C 91% 6.7 mph NNW10.8 kmh NNW 11.6 mph18.7 kmh 29.89 in1012.2 mb 0.00 in0.0 mm 0.00 in0.0 mm 0.00 in0.0 mm
05:24 AM 39.0°F3.9°C 36.9°F2.7°C 92% 4.0 mph W6.4 kmh W 10.3 mph16.6 kmh 29.89 in1012.2 mb 0.00 in0.0 mm 0.00 in0.0 mm 0.00 in0.0 mm
05:29 AM 38.8°F3.8°C 36.5°F2.5°C 91% 4.5 mph NW7.2 kmh NW 13.9 mph22.4 kmh 29.90 in1012.5 mb 0.00 in0.0 mm 0.00 in0.0 mm 0.00 in0.0 mm
05:34 AM 38.7°F3.7°C 36.3°F2.4°C 91% 3.1 mph N5.0 kmh N 6.5 mph10.5 kmh 29.91 in1012.9 mb 0.00 in0.0 mm 0.00 in0.0 mm 0.00 in0.0 mm
05:39 AM 38.5°F3.6°C 36.1°F2.3°C 91% 3.6 mph NNE5.8 kmh NNE 5.6 mph9.0 kmh 29.91 in1012.9 mb 0.00 in0.0 mm 0.00 in0.0 mm 0.00 in0.0 mm
05:44 AM 38.5°F3.6°C 36.1°F2.3°C 91% 3.6 mph W5.8 kmh W 8.1 mph13.0 kmh 29.92 in1013.2 mb 0.00 in0.0 mm 0.00 in0.0 mm 0.00 in0.0 mm
05:49 AM 38.3°F3.5°C 36.0°F2.2°C 91% 4.0 mph NW6.4 kmh NW 9.6 mph15.4 kmh 29.92 in1013.2 mb 0.00 in0.0 mm 0.00 in0.0 mm 0.00 in0.0 mm
05:54 AM 38.3°F3.5°C 36.0°F2.2°C 91% 3.8 mph N6.1 kmh N 7.6 mph12.2 kmh 29.93 in1013.5 mb 0.00 in0.0 mm 0.00 in0.0 mm 0.00 in0.0 mm
05:59 AM 38.1°F3.4°C 36.0°F2.2°C 92% 4.0 mph N6.4 kmh N 8.1 mph13.0 kmh 29.93 in1013.5 mb 0.00 in0.0 mm 0.00 in0.0 mm 0.00 in0.0 mm
06:04 AM 38.1°F3.4°C 36.0°F2.2°C 92% 4.9 mph NNE7.9 kmh NNE 8.7 mph14.0 kmh 29.93 in1013.5 mb 0.00 in0.0 mm 0.00 in0.0 mm 0.00 in0.0 mm
06:09 AM 38.1°F3.4°C 36.0°F2.2°C 92% 5.1 mph NNW8.2 kmh NNW 8.9 mph14.3 kmh 29.94 in1013.9 mb 0.00 in0.0 mm 0.00 in0.0 mm 0.00 in0.0 mm
06:14 AM 37.9°F3.3°C 35.8°F2.1°C 92% 3.6 mph NNW5.8 kmh NNW 7.4 mph11.9 kmh 29.95 in1014.2 mb 0.00 in0.0 mm 0.00 in0.0 mm 0.00 in0.0 mm
06:19 AM 37.9°F3.3°C 35.8°F2.1°C 92% 3.6 mph N5.8 kmh N 6.7 mph10.8 kmh 29.96 in1014.6 mb 0.00 in0.0 mm 0.00 in0.0 mm 0.00 in0.0 mm
06:24 AM 37.8°F3.2°C 35.6°F2.0°C 92% 4.5 mph NNW7.2 kmh NNW 7.6 mph12.2 kmh 29.97 in1014.9 mb 0.00 in0.0 mm 0.00 in0.0 mm 0.00 in0.0 mm
06:29 AM 37.8°F3.2°C 35.6°F2.0°C 92% 4.9 mph WNW7.9 kmh WNW 8.3 mph13.4 kmh 29.97 in1014.9 mb 0.00 in0.0 mm 0.00 in0.0 mm 0.00 in0.0 mm
06:34 AM 37.8°F3.2°C 35.6°F2.0°C 92% 2.7 mph NE4.3 kmh NE 7.2 mph11.6 kmh 29.98 in1015.2 mb 0.00 in0.0 mm 0.00 in0.0 mm 0.00 in0.0 mm
06:39 AM 37.8°F3.2°C 35.4°F1.9°C 91% 2.0 mph WNW3.2 kmh WNW 5.1 mph8.2 kmh 29.98 in1015.2 mb 0.00 in0.0 mm 0.00 in0.0 mm 0.00 in0.0 mm
06:44 AM 37.8°F3.2°C 35.6°F2.0°C 92% 3.6 mph NW5.8 kmh NW 6.7 mph10.8 kmh 29.98 in1015.2 mb 0.00 in0.0 mm 0.00 in0.0 mm 0.00 in0.0 mm
06:49 AM 37.6°F3.1°C 35.2°F1.8°C 91% 1.6 mph NE2.6 kmh NE 3.6 mph5.8 kmh 29.98 in1015.2 mb 0.00 in0.0 mm 0.00 in0.0 mm 0.00 in0.0 mm
06:54 AM 37.6°F3.1°C 35.2°F1.8°C 91% 1.6 mph NNW2.6 kmh NNW 3.6 mph5.8 kmh 29.99 in1015.6 mb 0.00 in0.0 mm 0.00 in0.0 mm 0.00 in0.0 mm
06:59 AM 37.8°F3.2°C 35.4°F1.9°C 91% 2.0 mph NW3.2 kmh NW 4.7 mph7.6 kmh 30.00 in1015.9 mb 0.00 in0.0 mm 0.00 in0.0 mm 0.00 in0.0 mm
07:04 AM 37.6°F3.1°C 35.2°F1.8°C 91% 4.3 mph WNW6.9 kmh WNW 10.1 mph16.3 kmh 30.01 in1016.3 mb 0.00 in0.0 mm 0.00 in0.0 mm 0.00 in0.0 mm
07:09 AM 37.6°F3.1°C 35.2°F1.8°C 91% 1.8 mph W2.9 kmh W 4.9 mph7.9 kmh 30.02 in1016.6 mb 0.00 in0.0 mm 0.00 in0.0 mm 0.00 in0.0 mm
07:14 AM 37.6°F3.1°C 35.2°F1.8°C 91% 3.6 mph N5.8 kmh N 6.7 mph10.8 kmh 30.02 in1016.6 mb 0.00 in0.0 mm 0.00 in0.0 mm 0.00 in0.0 mm
07:19 AM 37.6°F3.1°C 35.2°F1.8°C 91% 2.7 mph N4.3 kmh N 4.9 mph7.9 kmh 30.03 in1016.9 mb 0.00 in0.0 mm 0.00 in0.0 mm 0.00 in0.0 mm
07:24 AM 37.4°F3.0°C 35.1°F1.7°C 91% 3.1 mph 5.0 kmh 6.5 mph10.5 kmh 30.04 in1017.3 mb 0.00 in0.0 mm 0.00 in0.0 mm 0.00 in0.0 mm
07:29 AM 37.4°F3.0°C 35.1°F1.7°C 91% 3.4 mph NW5.5 kmh NW 8.3 mph13.4 kmh 30.04 in1017.3 mb 0.00 in0.0 mm 0.00 in0.0 mm 0.00 in0.0 mm
07:34 AM 37.4°F3.0°C 35.1°F1.7°C 91% 3.6 mph N5.8 kmh N 6.9 mph11.1 kmh 30.05 in1017.6 mb 0.00 in0.0 mm 0.00 in0.0 mm 0.00 in0.0 mm
07:39 AM 37.4°F3.0°C 35.1°F1.7°C 91% 4.3 mph NW6.9 kmh NW 9.8 mph15.8 kmh 30.06 in1017.9 mb 0.00 in0.0 mm 0.00 in0.0 mm 0.00 in0.0 mm
07:44 AM 37.4°F3.0°C 35.1°F1.7°C 91% 2.2 mph N3.5 kmh N 5.1 mph8.2 kmh 30.06 in1017.9 mb 0.00 in0.0 mm 0.00 in0.0 mm 0.00 in0.0 mm
07:49 AM 37.4°F3.0°C 34.7°F1.5°C 90% 2.2 mph N3.5 kmh N 4.3 mph6.9 kmh 30.07 in1018.3 mb 0.00 in0.0 mm 0.00 in0.0 mm 0.00 in0.0 mm
07:54 AM 37.2°F2.9°C 34.5°F1.4°C 90% 3.6 mph NNW5.8 kmh NNW 6.7 mph10.8 kmh 30.07 in1018.3 mb 0.00 in0.0 mm 0.00 in0.0 mm 0.00 in0.0 mm
07:59 AM 37.2°F2.9°C 34.5°F1.4°C 90% 2.5 mph NNW4.0 kmh NNW 5.6 mph9.0 kmh 30.07 in1018.3 mb 0.00 in0.0 mm 0.00 in0.0 mm 0.00 in0.0 mm
08:04 AM 37.2°F2.9°C 34.5°F1.4°C 90% 1.8 mph 2.9 kmh 3.6 mph5.8 kmh 30.08 in1018.6 mb 0.00 in0.0 mm 0.00 in0.0 mm 0.00 in0.0 mm
08:09 AM 37.0°F2.8°C 34.3°F1.3°C 90% 3.1 mph N5.0 kmh N 3.8 mph6.1 kmh 30.08 in1018.6 mb 0.00 in0.0 mm 0.00 in0.0 mm 0.00 in0.0 mm
08:14 AM 37.0°F2.8°C 34.3°F1.3°C 90% 3.1 mph N5.0 kmh N 5.8 mph9.3 kmh 30.09 in1019.0 mb 0.00 in0.0 mm 0.00 in0.0 mm 0.00 in0.0 mm
08:19 AM 37.0°F2.8°C 34.2°F1.2°C 89% 2.0 mph NNE3.2 kmh NNE 3.1 mph5.0 kmh 30.09 in1019.0 mb 0.00 in0.0 mm 0.00 in0.0 mm 0.00 in0.0 mm
08:24 AM 37.0°F2.8°C 34.3°F1.3°C 90% 3.4 mph N5.5 kmh N 4.7 mph7.6 kmh 30.10 in1019.3 mb 0.00 in0.0 mm 0.00 in0.0 mm 0.00 in0.0 mm
08:29 AM 36.7°F2.6°C 33.8°F1.0°C 89% 3.6 mph NW5.8 kmh NW 6.3 mph10.1 kmh 30.10 in1019.3 mb 0.00 in0.0 mm 0.00 in0.0 mm 0.00 in0.0 mm
08:34 AM 36.7°F2.6°C 33.3°F0.7°C 87% 3.4 mph N5.5 kmh N 4.5 mph7.2 kmh 30.10 in1019.3 mb 0.00 in0.0 mm 0.00 in0.0 mm 0.00 in0.0 mm
08:39 AM 36.5°F2.5°C 33.6°F0.9°C 89% 1.8 mph NNW2.9 kmh NNW 3.1 mph5.0 kmh 30.10 in1019.3 mb 0.00 in0.0 mm 0.00 in0.0 mm 0.00 in0.0 mm
08:44 AM 36.7°F2.6°C 33.8°F1.0°C 89% 1.8 mph NNW2.9 kmh NNW 3.8 mph6.1 kmh 30.11 in1019.6 mb 0.00 in0.0 mm 0.00 in0.0 mm 0.00 in0.0 mm
08:49 AM 36.5°F2.5°C 33.1°F0.6°C 87% 1.6 mph W2.6 kmh W 3.1 mph5.0 kmh 30.11 in1019.6 mb 0.00 in0.0 mm 0.00 in0.0 mm 0.00 in0.0 mm
08:54 AM 36.5°F2.5°C 33.6°F0.9°C 89% 2.7 mph N4.3 kmh N 4.7 mph7.6 kmh 30.12 in1020.0 mb 0.00 in0.0 mm 0.00 in0.0 mm 0.00 in0.0 mm
08:59 AM 36.7°F2.6°C 33.8°F1.0°C 89% 1.8 mph NW2.9 kmh NW 3.1 mph5.0 kmh 30.13 in1020.3 mb 0.00 in0.0 mm 0.00 in0.0 mm 0.00 in0.0 mm
09:04 AM 36.5°F2.5°C 33.6°F0.9°C 89% 2.5 mph N4.0 kmh N 3.6 mph5.8 kmh 30.13 in1020.3 mb 0.00 in0.0 mm 0.00 in0.0 mm 0.00 in0.0 mm
09:09 AM 36.5°F2.5°C 33.6°F0.9°C 89% 3.1 mph NNW5.0 kmh NNW 4.9 mph7.9 kmh 30.13 in1020.3 mb 0.00 in0.0 mm 0.00 in0.0 mm 0.00 in0.0 mm
09:14 AM 36.7°F2.6°C 33.8°F1.0°C 89% 1.8 mph NNW2.9 kmh NNW 3.8 mph6.1 kmh 30.14 in1020.7 mb 0.00 in0.0 mm 0.00 in0.0 mm 0.00 in0.0 mm
09:19 AM 36.7°F2.6°C 33.8°F1.0°C 89% 4.3 mph N6.9 kmh N 6.5 mph10.5 kmh 30.14 in1020.7 mb 0.00 in0.0 mm 0.00 in0.0 mm 0.00 in0.0 mm
09:24 AM 36.7°F2.6°C 33.3°F0.7°C 87% 2.0 mph N3.2 kmh N 2.7 mph4.3 kmh 30.14 in1020.7 mb 0.00 in0.0 mm 0.00 in0.0 mm 0.00 in0.0 mm
09:29 AM 36.7°F2.6°C 33.8°F1.0°C 89% 3.4 mph NW5.5 kmh NW 5.8 mph9.3 kmh 30.15 in1021.0 mb 0.00 in0.0 mm 0.00 in0.0 mm 0.00 in0.0 mm
09:34 AM 36.9°F2.7°C 34.0°F1.1°C 89% 1.6 mph N2.6 kmh N 4.7 mph7.6 kmh 30.15 in1021.0 mb 0.00 in0.0 mm 0.00 in0.0 mm 0.00 in0.0 mm
09:39 AM 37.0°F2.8°C 34.2°F1.2°C 89% 2.5 mph NNW4.0 kmh NNW 4.0 mph6.4 kmh 30.15 in1021.0 mb 0.00 in0.0 mm 0.00 in0.0 mm 0.00 in0.0 mm
09:44 AM 37.0°F2.8°C 34.2°F1.2°C 89% 2.2 mph NNW3.5 kmh NNW 4.5 mph7.2 kmh 30.15 in1021.0 mb 0.00 in0.0 mm 0.00 in0.0 mm 0.00 in0.0 mm
09:49 AM 37.2°F2.9°C 34.3°F1.3°C 89% 1.3 mph N2.1 kmh N 3.4 mph5.5 kmh 30.15 in1021.0 mb 0.00 in0.0 mm 0.00 in0.0 mm 0.00 in0.0 mm
09:54 AM 37.0°F2.8°C 34.2°F1.2°C 89% 2.2 mph WSW3.5 kmh WSW 4.7 mph7.6 kmh 30.16 in1021.3 mb 0.00 in0.0 mm 0.00 in0.0 mm 0.00 in0.0 mm
09:59 AM 37.0°F2.8°C 34.2°F1.2°C 89% 1.3 mph N2.1 kmh N 2.2 mph3.5 kmh 30.16 in1021.3 mb 0.00 in0.0 mm 0.00 in0.0 mm 0.00 in0.0 mm
10:04 AM 36.9°F2.7°C 34.0°F1.1°C 89% 2.2 mph NW3.5 kmh NW 5.8 mph9.3 kmh 30.16 in1021.3 mb 0.00 in0.0 mm 0.00 in0.0 mm 0.00 in0.0 mm
10:09 AM 36.9°F2.7°C 34.0°F1.1°C 89% 1.8 mph N2.9 kmh N 2.7 mph4.3 kmh 30.16 in1021.3 mb 0.00 in0.0 mm 0.00 in0.0 mm 0.00 in0.0 mm
10:14 AM 36.9°F2.7°C 34.0°F1.1°C 89% 1.1 mph NW1.8 kmh NW 1.8 mph2.9 kmh 30.16 in1021.3 mb 0.00 in0.0 mm 0.00 in0.0 mm 0.00 in0.0 mm
10:19 AM 36.9°F2.7°C 34.0°F1.1°C 89% 2.7 mph N4.3 kmh N 4.5 mph7.2 kmh 30.17 in1021.7 mb 0.00 in0.0 mm 0.00 in0.0 mm 0.00 in0.0 mm
10:24 AM 36.9°F2.7°C 34.0°F1.1°C 89% 0.9 mph N1.4 kmh N 2.5 mph4.0 kmh 30.17 in1021.7 mb 0.00 in0.0 mm 0.00 in0.0 mm 0.00 in0.0 mm
10:29 AM 36.9°F2.7°C 34.0°F1.1°C 89% 4.9 mph NNW7.9 kmh NNW 8.5 mph13.7 kmh 30.17 in1021.7 mb 0.00 in0.0 mm 0.00 in0.0 mm 0.00 in0.0 mm
10:34 AM 36.9°F2.7°C 33.4°F0.8°C 87% 2.7 mph N4.3 kmh N 4.7 mph7.6 kmh 30.18 in1022.0 mb 0.00 in0.0 mm 0.00 in0.0 mm 0.00 in0.0 mm
10:39 AM 36.9°F2.7°C 33.4°F0.8°C 87% 2.0 mph N3.2 kmh N 3.1 mph5.0 kmh 30.18 in1022.0 mb 0.00 in0.0 mm 0.00 in0.0 mm 0.00 in0.0 mm
10:44 AM 37.2°F2.9°C 33.6°F0.9°C 87% 0.7 mph NNW1.1 kmh NNW 3.6 mph5.8 kmh 30.19 in1022.4 mb 0.00 in0.0 mm 0.00 in0.0 mm 0.00 in0.0 mm
10:49 AM 37.4°F3.0°C 34.5°F1.4°C 89% 1.3 mph NW2.1 kmh NW 4.5 mph7.2 kmh 30.19 in1022.4 mb 0.00 in0.0 mm 0.00 in0.0 mm 0.00 in0.0 mm
10:54 AM 37.4°F3.0°C 34.5°F1.4°C 89% 2.5 mph WNW4.0 kmh WNW 4.0 mph6.4 kmh 30.20 in1022.7 mb 0.00 in0.0 mm 0.00 in0.0 mm 0.00 in0.0 mm
10:59 AM 37.4°F3.0°C 34.5°F1.4°C 89% 2.0 mph N3.2 kmh N 4.5 mph7.2 kmh 30.20 in1022.7 mb 0.00 in0.0 mm 0.00 in0.0 mm 0.00 in0.0 mm
11:04 AM 37.2°F2.9°C 34.3°F1.3°C 89% 1.8 mph NW2.9 kmh NW 4.7 mph7.6 kmh 30.21 in1023.0 mb 0.00 in0.0 mm 0.00 in0.0 mm 0.00 in0.0 mm
11:09 AM 37.2°F2.9°C 34.3°F1.3°C 89% 1.6 mph NNW2.6 kmh NNW 3.1 mph5.0 kmh 30.21 in1023.0 mb 0.00 in0.0 mm 0.00 in0.0 mm 0.00 in0.0 mm
11:14 AM 37.4°F3.0°C 34.5°F1.4°C 89% 2.0 mph N3.2 kmh N 4.0 mph6.4 kmh 30.21 in1023.0 mb 0.00 in0.0 mm 0.00 in0.0 mm 0.00 in0.0 mm
11:19 AM 37.2°F2.9°C 34.3°F1.3°C 89% 3.4 mph NNW5.5 kmh NNW 5.6 mph9.0 kmh 30.21 in1023.0 mb 0.00 in0.0 mm 0.00 in0.0 mm 0.00 in0.0 mm
11:24 AM 37.4°F3.0°C 34.5°F1.4°C 89% 2.9 mph WNW4.7 kmh WNW 6.0 mph9.7 kmh 30.22 in1023.4 mb 0.00 in0.0 mm 0.00 in0.0 mm 0.00 in0.0 mm
11:29 AM 37.4°F3.0°C 34.5°F1.4°C 89% 2.7 mph N4.3 kmh N 4.9 mph7.9 kmh 30.22 in1023.4 mb 0.00 in0.0 mm 0.00 in0.0 mm 0.00 in0.0 mm
11:34 AM 37.4°F3.0°C 34.5°F1.4°C 89% 2.9 mph W4.7 kmh W 5.8 mph9.3 kmh 30.22 in1023.4 mb 0.00 in0.0 mm 0.00 in0.0 mm 0.00 in0.0 mm
11:39 AM 37.4°F3.0°C 33.8°F1.0°C 87% 3.8 mph N6.1 kmh N 7.2 mph11.6 kmh 30.22 in1023.4 mb 0.00 in0.0 mm 0.00 in0.0 mm 0.00 in0.0 mm
11:44 AM 37.4°F3.0°C 33.8°F1.0°C 87% 1.8 mph NW2.9 kmh NW 4.5 mph7.2 kmh 30.22 in1023.4 mb 0.00 in0.0 mm 0.00 in0.0 mm 0.00 in0.0 mm
11:49 AM 37.6°F3.1°C 34.7°F1.5°C 89% 3.1 mph NNW5.0 kmh NNW 5.8 mph9.3 kmh 30.22 in1023.4 mb 0.00 in0.0 mm 0.00 in0.0 mm 0.00 in0.0 mm
11:54 AM 37.4°F3.0°C 33.8°F1.0°C 87% 2.2 mph WSW3.5 kmh WSW 3.6 mph5.8 kmh 30.22 in1023.4 mb 0.00 in0.0 mm 0.00 in0.0 mm 0.00 in0.0 mm
11:59 AM 37.6°F3.1°C 34.0°F1.1°C 87% 2.0 mph W3.2 kmh W 5.8 mph9.3 kmh 30.22 in1023.4 mb 0.00 in0.0 mm 0.00 in0.0 mm 0.00 in0.0 mm
12:04 PM 37.4°F3.0°C 33.8°F1.0°C 87% 2.0 mph NNE3.2 kmh NNE 4.3 mph6.9 kmh 30.22 in1023.4 mb 0.00 in0.0 mm 0.00 in0.0 mm 0.00 in0.0 mm
12:09 PM 37.4°F3.0°C 33.8°F1.0°C 87% 2.7 mph NW4.3 kmh NW 6.5 mph10.5 kmh 30.22 in1023.4 mb 0.00 in0.0 mm 0.00 in0.0 mm 0.00 in0.0 mm
12:14 PM 37.2°F2.9°C 33.6°F0.9°C 87% 2.5 mph NNW4.0 kmh NNW 6.3 mph10.1 kmh 30.22 in1023.4 mb 0.00 in0.0 mm 0.00 in0.0 mm 0.00 in0.0 mm
12:19 PM 37.2°F2.9°C 34.3°F1.3°C 89% 1.8 mph NNW2.9 kmh NNW 3.8 mph6.1 kmh 30.22 in1023.4 mb 0.00 in0.0 mm 0.00 in0.0 mm 0.00 in0.0 mm
12:24 PM 37.4°F3.0°C 34.5°F1.4°C 89% 1.1 mph NW1.8 kmh NW 2.0 mph3.2 kmh 30.22 in1023.4 mb 0.00 in0.0 mm 0.00 in0.0 mm 0.00 in0.0 mm
12:29 PM 37.4°F3.0°C 34.5°F1.4°C 89% 0.7 mph N1.1 kmh N 1.8 mph2.9 kmh 30.22 in1023.4 mb 0.00 in0.0 mm 0.00 in0.0 mm 0.00 in0.0 mm
12:34 PM 37.2°F2.9°C 34.5°F1.4°C 90% 1.3 mph N2.1 kmh N 2.7 mph4.3 kmh 30.22 in1023.4 mb 0.00 in0.0 mm 0.00 in0.0 mm 0.00 in0.0 mm
12:39 PM 37.0°F2.8°C 34.3°F1.3°C 90% 2.0 mph N3.2 kmh N 3.8 mph6.1 kmh 30.22 in1023.4 mb 0.00 in0.0 mm 0.00 in0.0 mm 0.00 in0.0 mm
12:44 PM 36.9°F2.7°C 34.2°F1.2°C 90% 1.6 mph N2.6 kmh N 2.9 mph4.7 kmh 30.22 in1023.4 mb 0.00 in0.0 mm 0.00 in0.0 mm 0.00 in0.0 mm
12:49 PM 37.0°F2.8°C 34.9°F1.6°C 92% 1.6 mph N2.6 kmh N 2.5 mph4.0 kmh 30.22 in1023.4 mb 0.00 in0.0 mm 0.00 in0.0 mm 0.00 in0.0 mm
12:54 PM 37.0°F2.8°C 34.9°F1.6°C 92% 0.7 mph ENE1.1 kmh ENE 1.8 mph2.9 kmh 30.22 in1023.4 mb 0.00 in0.0 mm 0.00 in0.0 mm 0.00 in0.0 mm
12:59 PM 37.0°F2.8°C 35.4°F1.9°C 94% 3.8 mph NNW6.1 kmh NNW 8.1 mph13.0 kmh 30.22 in1023.4 mb 0.00 in0.0 mm 0.00 in0.0 mm 0.00 in0.0 mm
01:04 PM 36.9°F2.7°C 35.2°F1.8°C 94% 1.8 mph N2.9 kmh N 3.8 mph6.1 kmh 30.22 in1023.4 mb 0.00 in0.0 mm 0.00 in0.0 mm 0.00 in0.0 mm
01:09 PM 36.7°F2.6°C 35.1°F1.7°C 94% 2.2 mph N3.5 kmh N 3.6 mph5.8 kmh 30.22 in1023.4 mb 0.00 in0.0 mm 0.00 in0.0 mm 0.00 in0.0 mm
01:14 PM 36.7°F2.6°C 35.1°F1.7°C 94% 2.0 mph W3.2 kmh W 5.4 mph8.7 kmh 30.21 in1023.0 mb 0.00 in0.0 mm 0.00 in0.0 mm 0.00 in0.0 mm
01:19 PM 36.7°F2.6°C 34.5°F1.4°C 92% 2.0 mph NW3.2 kmh NW 4.0 mph6.4 kmh 30.22 in1023.4 mb 0.00 in0.0 mm 0.00 in0.0 mm 0.00 in0.0 mm
01:24 PM 36.7°F2.6°C 35.1°F1.7°C 94% 3.1 mph N5.0 kmh N 5.8 mph9.3 kmh 30.21 in1023.0 mb 0.00 in0.0 mm 0.00 in0.0 mm 0.00 in0.0 mm
01:29 PM 36.5°F2.5°C 34.3°F1.3°C 92% 1.8 mph N2.9 kmh N 2.7 mph4.3 kmh 30.21 in1023.0 mb 0.00 in0.0 mm 0.00 in0.0 mm 0.00 in0.0 mm
01:34 PM 36.3°F2.4°C 34.2°F1.2°C 92% 1.8 mph N2.9 kmh N 2.7 mph4.3 kmh 30.21 in1023.0 mb 0.00 in0.0 mm 0.00 in0.0 mm 0.00 in0.0 mm
01:39 PM 36.3°F2.4°C 34.7°F1.5°C 94% 1.3 mph N2.1 kmh N 3.4 mph5.5 kmh 30.21 in1023.0 mb 0.00 in0.0 mm 0.00 in0.0 mm 0.00 in0.0 mm
01:44 PM 36.5°F2.5°C 35.2°F1.8°C 95% 0.9 mph N1.4 kmh N 2.0 mph3.2 kmh 30.21 in1023.0 mb 0.00 in0.0 mm 0.00 in0.0 mm 0.00 in0.0 mm
01:49 PM 36.5°F2.5°C 35.2°F1.8°C 95% 2.7 mph N4.3 kmh N 4.7 mph7.6 kmh 30.21 in1023.0 mb 0.00 in0.0 mm 0.00 in0.0 mm 0.00 in0.0 mm
01:54 PM 36.5°F2.5°C 35.2°F1.8°C 95% 1.8 mph N2.9 kmh N 2.5 mph4.0 kmh 30.21 in1023.0 mb 0.00 in0.0 mm 0.00 in0.0 mm 0.00 in0.0 mm
01:59 PM 36.5°F2.5°C 34.9°F1.6°C 94% 2.2 mph N3.5 kmh N 3.1 mph5.0 kmh 30.21 in1023.0 mb 0.00 in0.0 mm 0.00 in0.0 mm 0.00 in0.0 mm
02:04 PM 36.5°F2.5°C 34.3°F1.3°C 92% 2.0 mph N3.2 kmh N 2.7 mph4.3 kmh 30.21 in1023.0 mb 0.00 in0.0 mm 0.00 in0.0 mm 0.00 in0.0 mm
02:09 PM 36.5°F2.5°C 34.3°F1.3°C 92% 1.8 mph NE2.9 kmh NE 2.2 mph3.5 kmh 30.21 in1023.0 mb 0.00 in0.0 mm 0.00 in0.0 mm 0.00 in0.0 mm
02:14 PM 36.5°F2.5°C 34.3°F1.3°C 92% 1.3 mph 2.1 kmh 1.8 mph2.9 kmh 30.21 in1023.0 mb 0.00 in0.0 mm 0.00 in0.0 mm 0.00 in0.0 mm
02:19 PM 36.5°F2.5°C 34.3°F1.3°C 92% 0.9 mph N1.4 kmh N 2.2 mph3.5 kmh 30.21 in1023.0 mb 0.00 in0.0 mm 0.00 in0.0 mm 0.00 in0.0 mm
02:24 PM 36.9°F2.7°C 34.7°F1.5°C 92% 1.1 mph N1.8 kmh N 1.8 mph2.9 kmh 30.21 in1023.0 mb 0.00 in0.0 mm 0.00 in0.0 mm 0.00 in0.0 mm
02:29 PM 36.9°F2.7°C 34.7°F1.5°C 92% 1.3 mph N2.1 kmh N 2.5 mph4.0 kmh 30.21 in1023.0 mb 0.00 in0.0 mm 0.00 in0.0 mm 0.00 in0.0 mm
02:34 PM 36.9°F2.7°C 34.7°F1.5°C 92% 1.8 mph NNE2.9 kmh NNE 3.1 mph5.0 kmh 30.21 in1023.0 mb 0.00 in0.0 mm 0.00 in0.0 mm 0.00 in0.0 mm
02:39 PM 36.9°F2.7°C 35.2°F1.8°C 94% 1.1 mph N1.8 kmh N 1.8 mph2.9 kmh 30.21 in1023.0 mb 0.00 in0.0 mm 0.00 in0.0 mm 0.00 in0.0 mm
02:44 PM 37.0°F2.8°C 35.4°F1.9°C 94% 1.6 mph N2.6 kmh N 3.6 mph5.8 kmh 30.21 in1023.0 mb 0.00 in0.0 mm 0.00 in0.0 mm 0.00 in0.0 mm
02:49 PM 37.0°F2.8°C 35.4°F1.9°C 94% 2.7 mph N4.3 kmh N 3.8 mph6.1 kmh 30.20 in1022.7 mb 0.00 in0.0 mm 0.00 in0.0 mm 0.00 in0.0 mm
02:54 PM 37.0°F2.8°C 34.9°F1.6°C 92% 2.7 mph N4.3 kmh N 3.8 mph6.1 kmh 30.20 in1022.7 mb 0.00 in0.0 mm 0.00 in0.0 mm 0.00 in0.0 mm
02:59 PM 37.0°F2.8°C 35.4°F1.9°C 94% 2.2 mph N3.5 kmh N 3.4 mph5.5 kmh 30.20 in1022.7 mb 0.00 in0.0 mm 0.00 in0.0 mm 0.00 in0.0 mm
03:04 PM 37.0°F2.8°C 34.9°F1.6°C 92% 2.0 mph N3.2 kmh N 5.8 mph9.3 kmh 30.21 in1023.0 mb 0.00 in0.0 mm 0.00 in0.0 mm 0.00 in0.0 mm
03:09 PM 37.0°F2.8°C 34.7°F1.5°C 91% 4.3 mph 6.9 kmh 7.2 mph11.6 kmh 30.21 in1023.0 mb 0.00 in0.0 mm 0.00 in0.0 mm 0.00 in0.0 mm
03:14 PM 36.5°F2.5°C 34.3°F1.3°C 92% 3.6 mph N5.8 kmh N 4.9 mph7.9 kmh 30.21 in1023.0 mb 0.00 in0.0 mm 0.00 in0.0 mm 0.00 in0.0 mm
03:19 PM 36.3°F2.4°C 34.7°F1.5°C 94% 3.6 mph N5.8 kmh N 5.4 mph8.7 kmh 30.22 in1023.4 mb 0.00 in0.0 mm 0.00 in0.0 mm 0.00 in0.0 mm
03:24 PM 36.3°F2.4°C 34.7°F1.5°C 94% 2.5 mph NNE4.0 kmh NNE 3.4 mph5.5 kmh 30.22 in1023.4 mb 0.00 in0.0 mm 0.00 in0.0 mm 0.00 in0.0 mm
03:29 PM 36.3°F2.4°C 34.2°F1.2°C 92% 1.3 mph N2.1 kmh N 2.2 mph3.5 kmh 30.22 in1023.4 mb 0.00 in0.0 mm 0.00 in0.0 mm 0.00 in0.0 mm
03:34 PM 36.3°F2.4°C 34.2°F1.2°C 92% 3.1 mph N5.0 kmh N 4.5 mph7.2 kmh 30.22 in1023.4 mb 0.00 in0.0 mm 0.00 in0.0 mm 0.00 in0.0 mm
03:39 PM 36.1°F2.3°C 33.8°F1.0°C 91% 3.1 mph N5.0 kmh N 4.7 mph7.6 kmh 30.22 in1023.4 mb 0.00 in0.0 mm 0.00 in0.0 mm 0.00 in0.0 mm
03:44 PM 36.0°F2.2°C 33.6°F0.9°C 91% 2.2 mph N3.5 kmh N 2.7 mph4.3 kmh 30.22 in1023.4 mb 0.00 in0.0 mm 0.00 in0.0 mm 0.00 in0.0 mm
03:49 PM 35.8°F2.1°C 33.6°F0.9°C 92% 2.9 mph N4.7 kmh N 3.8 mph6.1 kmh 30.23 in1023.7 mb 0.00 in0.0 mm 0.00 in0.0 mm 0.00 in0.0 mm
03:54 PM 35.6°F2.0°C 33.4°F0.8°C 92% 2.5 mph N4.0 kmh N 3.6 mph5.8 kmh 30.23 in1023.7 mb 0.00 in0.0 mm 0.00 in0.0 mm 0.00 in0.0 mm
03:59 PM 35.4°F1.9°C 33.3°F0.7°C 92% 1.3 mph N2.1 kmh N 2.2 mph3.5 kmh 30.23 in1023.7 mb 0.00 in0.0 mm 0.00 in0.0 mm 0.00 in0.0 mm
04:04 PM 35.2°F1.8°C 32.9°F0.5°C 91% 3.1 mph N5.0 kmh N 5.1 mph8.2 kmh 30.24 in1024.0 mb 0.00 in0.0 mm 0.00 in0.0 mm 0.00 in0.0 mm
04:09 PM 35.2°F1.8°C 32.9°F0.5°C 91% 2.0 mph NNE3.2 kmh NNE 2.7 mph4.3 kmh 30.24 in1024.0 mb 0.00 in0.0 mm 0.00 in0.0 mm 0.00 in0.0 mm
04:14 PM 35.2°F1.8°C 32.9°F0.5°C 91% 3.6 mph N5.8 kmh N 4.7 mph7.6 kmh 30.24 in1024.0 mb 0.00 in0.0 mm 0.00 in0.0 mm 0.00 in0.0 mm
04:19 PM 35.1°F1.7°C 32.7°F0.4°C 91% 2.5 mph NNE4.0 kmh NNE 3.8 mph6.1 kmh 30.24 in1024.0 mb 0.00 in0.0 mm 0.00 in0.0 mm 0.00 in0.0 mm
04:24 PM 35.1°F1.7°C 32.7°F0.4°C 91% 3.4 mph NNE5.5 kmh NNE 5.1 mph8.2 kmh 30.25 in1024.4 mb 0.00 in0.0 mm 0.00 in0.0 mm 0.00 in0.0 mm
04:29 PM 34.9°F1.6°C 32.2°F0.1°C 90% 3.1 mph NNE5.0 kmh NNE 4.9 mph7.9 kmh 30.24 in1024.0 mb 0.00 in0.0 mm 0.00 in0.0 mm 0.00 in0.0 mm
04:34 PM 34.9°F1.6°C 32.2°F0.1°C 90% 2.2 mph N3.5 kmh N 2.9 mph4.7 kmh 30.25 in1024.4 mb 0.00 in0.0 mm 0.00 in0.0 mm 0.00 in0.0 mm
04:39 PM 34.9°F1.6°C 32.2°F0.1°C 90% 3.6 mph N5.8 kmh N 6.0 mph9.7 kmh 30.26 in1024.7 mb 0.00 in0.0 mm 0.00 in0.0 mm 0.00 in0.0 mm
04:44 PM 34.7°F1.5°C 32.0°F0.0°C 90% 2.0 mph N3.2 kmh N 2.5 mph4.0 kmh 30.26 in1024.7 mb 0.00 in0.0 mm 0.00 in0.0 mm 0.00 in0.0 mm
04:49 PM 34.5°F1.4°C 32.2°F0.1°C 91% 3.1 mph NNE5.0 kmh NNE 4.0 mph6.4 kmh 30.26 in1024.7 mb 0.00 in0.0 mm 0.00 in0.0 mm 0.00 in0.0 mm
04:54 PM 34.7°F1.5°C 32.0°F0.0°C 90% 1.3 mph N2.1 kmh N 2.5 mph4.0 kmh 30.26 in1024.7 mb 0.00 in0.0 mm 0.00 in0.0 mm 0.00 in0.0 mm
04:59 PM 34.9°F1.6°C 32.2°F0.1°C 90% 1.3 mph N2.1 kmh N 2.0 mph3.2 kmh 30.26 in1024.7 mb 0.00 in0.0 mm 0.00 in0.0 mm 0.00 in0.0 mm
05:04 PM 34.9°F1.6°C 32.2°F0.1°C 90% 1.3 mph NE2.1 kmh NE 1.8 mph2.9 kmh 30.26 in1024.7 mb 0.00 in0.0 mm 0.00 in0.0 mm 0.00 in0.0 mm
05:09 PM 34.7°F1.5°C 32.0°F0.0°C 90% 1.3 mph NE2.1 kmh NE 2.2 mph3.5 kmh 30.26 in1024.7 mb 0.00 in0.0 mm 0.00 in0.0 mm 0.00 in0.0 mm
05:14 PM 34.7°F1.5°C 32.0°F0.0°C 90% 1.3 mph NNE2.1 kmh NNE 1.8 mph2.9 kmh 30.26 in1024.7 mb 0.00 in0.0 mm 0.00 in0.0 mm 0.00 in0.0 mm
05:19 PM 34.7°F1.5°C 32.4°F0.2°C 91% 1.8 mph NE2.9 kmh NE 2.9 mph4.7 kmh 30.27 in1025.1 mb 0.00 in0.0 mm 0.00 in0.0 mm 0.00 in0.0 mm
05:24 PM 34.5°F1.4°C 31.8°F-0.1°C 90% 2.2 mph N3.5 kmh N 3.1 mph5.0 kmh 30.27 in1025.1 mb 0.00 in0.0 mm 0.00 in0.0 mm 0.00 in0.0 mm
05:29 PM 34.5°F1.4°C 32.2°F0.1°C 91% 1.3 mph NNW2.1 kmh NNW 1.8 mph2.9 kmh 30.27 in1025.1 mb 0.00 in0.0 mm 0.00 in0.0 mm 0.00 in0.0 mm
05:34 PM 34.3°F1.3°C 32.0°F0.0°C 91% 1.8 mph N2.9 kmh N 2.2 mph3.5 kmh 30.27 in1025.1 mb 0.00 in0.0 mm 0.00 in0.0 mm 0.00 in0.0 mm
05:39 PM 34.5°F1.4°C 32.2°F0.1°C 91% 1.6 mph N2.6 kmh N 2.2 mph3.5 kmh 30.27 in1025.1 mb 0.00 in0.0 mm 0.00 in0.0 mm 0.00 in0.0 mm
05:44 PM 34.5°F1.4°C 32.4°F0.2°C 92% 2.0 mph N3.2 kmh N 2.7 mph4.3 kmh 30.28 in1025.4 mb 0.00 in0.0 mm 0.00 in0.0 mm 0.00 in0.0 mm
05:49 PM 34.2°F1.2°C 32.0°F0.0°C 92% 2.0 mph NNE3.2 kmh NNE 2.7 mph4.3 kmh 30.27 in1025.1 mb 0.00 in0.0 mm 0.00 in0.0 mm 0.00 in0.0 mm
05:54 PM 34.2°F1.2°C 32.0°F0.0°C 92% 1.6 mph N2.6 kmh N 2.5 mph4.0 kmh 30.28 in1025.4 mb 0.00 in0.0 mm 0.00 in0.0 mm 0.00 in0.0 mm
05:59 PM 34.0°F1.1°C 31.8°F-0.1°C 92% 2.7 mph N4.3 kmh N 3.8 mph6.1 kmh 30.28 in1025.4 mb 0.00 in0.0 mm 0.00 in0.0 mm 0.00 in0.0 mm
06:04 PM 34.0°F1.1°C 31.8°F-0.1°C 92% 2.0 mph N3.2 kmh N 4.0 mph6.4 kmh 30.28 in1025.4 mb 0.00 in0.0 mm 0.00 in0.0 mm 0.00 in0.0 mm
06:09 PM 34.0°F1.1°C 31.8°F-0.1°C 92% 3.1 mph NE5.0 kmh NE 4.7 mph7.6 kmh 30.28 in1025.4 mb 0.00 in0.0 mm 0.00 in0.0 mm 0.00 in0.0 mm
06:14 PM 34.0°F1.1°C 31.8°F-0.1°C 92% 2.0 mph N3.2 kmh N 3.6 mph5.8 kmh 30.29 in1025.7 mb 0.00 in0.0 mm 0.00 in0.0 mm 0.00 in0.0 mm
06:19 PM 34.0°F1.1°C 31.8°F-0.1°C 92% 2.0 mph N3.2 kmh N 3.4 mph5.5 kmh 30.29 in1025.7 mb 0.00 in0.0 mm 0.00 in0.0 mm 0.00 in0.0 mm
06:24 PM 34.0°F1.1°C 31.6°F-0.2°C 91% 2.0 mph N3.2 kmh N 3.6 mph5.8 kmh 30.29 in1025.7 mb 0.00 in0.0 mm 0.00 in0.0 mm 0.00 in0.0 mm
06:29 PM 33.6°F0.9°C 31.3°F-0.4°C 91% 2.2 mph N3.5 kmh N 2.9 mph4.7 kmh 30.29 in1025.7 mb 0.00 in0.0 mm 0.00 in0.0 mm 0.00 in0.0 mm
06:34 PM 33.6°F0.9°C 31.5°F-0.3°C 92% 2.9 mph N4.7 kmh N 4.3 mph6.9 kmh 30.29 in1025.7 mb 0.00 in0.0 mm 0.00 in0.0 mm 0.00 in0.0 mm
06:39 PM 33.4°F0.8°C 31.3°F-0.4°C 92% 2.2 mph NE3.5 kmh NE 2.9 mph4.7 kmh 30.30 in1026.1 mb 0.00 in0.0 mm 0.00 in0.0 mm 0.00 in0.0 mm
06:44 PM 33.6°F0.9°C 31.5°F-0.3°C 92% 1.1 mph N1.8 kmh N 2.2 mph3.5 kmh 30.30 in1026.1 mb 0.00 in0.0 mm 0.00 in0.0 mm 0.00 in0.0 mm
06:49 PM 33.4°F0.8°C 31.3°F-0.4°C 92% 2.5 mph N4.0 kmh N 3.6 mph5.8 kmh 30.30 in1026.1 mb 0.00 in0.0 mm 0.00 in0.0 mm 0.00 in0.0 mm
06:54 PM 33.6°F0.9°C 31.5°F-0.3°C 92% 0.9 mph NE1.4 kmh NE 1.8 mph2.9 kmh 30.30 in1026.1 mb 0.00 in0.0 mm 0.00 in0.0 mm 0.00 in0.0 mm
06:59 PM 33.8°F1.0°C 31.6°F-0.2°C 92% 1.8 mph NE2.9 kmh NE 2.0 mph3.2 kmh 30.30 in1026.1 mb 0.00 in0.0 mm 0.00 in0.0 mm 0.00 in0.0 mm
07:04 PM 33.8°F1.0°C 31.6°F-0.2°C 92% 1.1 mph NE1.8 kmh NE 1.3 mph2.1 kmh 30.30 in1026.1 mb 0.00 in0.0 mm 0.00 in0.0 mm 0.00 in0.0 mm
07:09 PM 33.6°F0.9°C 31.5°F-0.3°C 92% 1.6 mph N2.6 kmh N 2.5 mph4.0 kmh 30.30 in1026.1 mb 0.00 in0.0 mm 0.00 in0.0 mm 0.00 in0.0 mm
07:14 PM 33.6°F0.9°C 31.5°F-0.3°C 92% 2.2 mph NE3.5 kmh NE 2.9 mph4.7 kmh 30.30 in1026.1 mb 0.00 in0.0 mm 0.00 in0.0 mm 0.00 in0.0 mm
07:19 PM 33.6°F0.9°C 31.5°F-0.3°C 92% 1.1 mph NE1.8 kmh NE 1.8 mph2.9 kmh 30.30 in1026.1 mb 0.00 in0.0 mm 0.00 in0.0 mm 0.00 in0.0 mm
07:24 PM 33.8°F1.0°C 31.6°F-0.2°C 92% 2.2 mph NE3.5 kmh NE 3.4 mph5.5 kmh 30.30 in1026.1 mb 0.00 in0.0 mm 0.00 in0.0 mm 0.00 in0.0 mm
07:29 PM 33.8°F1.0°C 31.5°F-0.3°C 91% 1.6 mph NE2.6 kmh NE 2.2 mph3.5 kmh 30.30 in1026.1 mb 0.00 in0.0 mm 0.00 in0.0 mm 0.00 in0.0 mm
07:34 PM 33.8°F1.0°C 31.6°F-0.2°C 92% 2.0 mph NNE3.2 kmh NNE 2.5 mph4.0 kmh 30.30 in1026.1 mb 0.00 in0.0 mm 0.00 in0.0 mm 0.00 in0.0 mm
07:39 PM 33.8°F1.0°C 31.5°F-0.3°C 91% 1.3 mph NE2.1 kmh NE 2.0 mph3.2 kmh 30.30 in1026.1 mb 0.00 in0.0 mm 0.00 in0.0 mm 0.00 in0.0 mm
07:44 PM 34.0°F1.1°C 31.8°F-0.1°C 92% 1.6 mph NE2.6 kmh NE 2.0 mph3.2 kmh 30.30 in1026.1 mb 0.00 in0.0 mm 0.00 in0.0 mm 0.00 in0.0 mm
07:49 PM 34.0°F1.1°C 31.6°F-0.2°C 91% 0.9 mph ENE1.4 kmh ENE 1.6 mph2.6 kmh 30.30 in1026.1 mb 0.00 in0.0 mm 0.00 in0.0 mm 0.00 in0.0 mm
07:54 PM 34.0°F1.1°C 31.6°F-0.2°C 91% 1.6 mph E2.6 kmh E 1.8 mph2.9 kmh 30.31 in1026.4 mb 0.00 in0.0 mm 0.00 in0.0 mm 0.00 in0.0 mm
07:59 PM 33.8°F1.0°C 31.1°F-0.5°C 90% 1.3 mph NNE2.1 kmh NNE 1.8 mph2.9 kmh 30.30 in1026.1 mb 0.00 in0.0 mm 0.00 in0.0 mm 0.00 in0.0 mm
08:04 PM 33.8°F1.0°C 31.5°F-0.3°C 91% 0.4 mph NNE0.6 kmh NNE 1.1 mph1.8 kmh 30.30 in1026.1 mb 0.00 in0.0 mm 0.00 in0.0 mm 0.00 in0.0 mm
08:09 PM 33.6°F0.9°C 31.3°F-0.4°C 91% 2.0 mph NE3.2 kmh NE 2.7 mph4.3 kmh 30.30 in1026.1 mb 0.00 in0.0 mm 0.00 in0.0 mm 0.00 in0.0 mm
08:14 PM 33.4°F0.8°C 30.7°F-0.7°C 90% 2.2 mph NNE3.5 kmh NNE 3.1 mph5.0 kmh 30.30 in1026.1 mb 0.00 in0.0 mm 0.00 in0.0 mm 0.00 in0.0 mm
08:19 PM 33.4°F0.8°C 30.7°F-0.7°C 90% 1.8 mph NE2.9 kmh NE 3.1 mph5.0 kmh 30.30 in1026.1 mb 0.00 in0.0 mm 0.00 in0.0 mm 0.00 in0.0 mm
08:24 PM 33.4°F0.8°C 30.7°F-0.7°C 90% 1.1 mph NNE1.8 kmh NNE 2.0 mph3.2 kmh 30.30 in1026.1 mb 0.00 in0.0 mm 0.00 in0.0 mm 0.00 in0.0 mm
08:29 PM 33.4°F0.8°C 30.7°F-0.7°C 90% 1.3 mph NE2.1 kmh NE 2.2 mph3.5 kmh 30.30 in1026.1 mb 0.00 in0.0 mm 0.00 in0.0 mm 0.00 in0.0 mm
08:34 PM 33.3°F0.7°C 30.9°F-0.6°C 91% 1.8 mph NE2.9 kmh NE 2.0 mph3.2 kmh 30.30 in1026.1 mb 0.00 in0.0 mm 0.00 in0.0 mm 0.00 in0.0 mm
08:39 PM 33.3°F0.7°C 30.6°F-0.8°C 90% 1.6 mph NE2.6 kmh NE 2.2 mph3.5 kmh 30.30 in1026.1 mb 0.00 in0.0 mm 0.00 in0.0 mm 0.00 in0.0 mm
08:44 PM 33.3°F0.7°C 30.9°F-0.6°C 91% 1.8 mph ENE2.9 kmh ENE 2.0 mph3.2 kmh 30.30 in1026.1 mb 0.00 in0.0 mm 0.00 in0.0 mm 0.00 in0.0 mm
08:49 PM 33.4°F0.8°C 30.7°F-0.7°C 90% 1.1 mph NNE1.8 kmh NNE 1.8 mph2.9 kmh 30.30 in1026.1 mb 0.00 in0.0 mm 0.00 in0.0 mm 0.00 in0.0 mm
08:54 PM 33.3°F0.7°C 30.6°F-0.8°C 90% 1.8 mph NE2.9 kmh NE 2.5 mph4.0 kmh 30.30 in1026.1 mb 0.00 in0.0 mm 0.00 in0.0 mm 0.00 in0.0 mm
08:59 PM 33.3°F0.7°C 30.6°F-0.8°C 90% 1.1 mph NE1.8 kmh NE 1.8 mph2.9 kmh 30.30 in1026.1 mb 0.00 in0.0 mm 0.00 in0.0 mm 0.00 in0.0 mm
09:04 PM 33.4°F0.8°C 31.1°F-0.5°C 91% 2.0 mph NE3.2 kmh NE 3.1 mph5.0 kmh 30.30 in1026.1 mb 0.00 in0.0 mm 0.00 in0.0 mm 0.00 in0.0 mm
09:09 PM 33.3°F0.7°C 30.6°F-0.8°C 90% 1.8 mph NNE2.9 kmh NNE 2.5 mph4.0 kmh 30.30 in1026.1 mb 0.00 in0.0 mm 0.00 in0.0 mm 0.00 in0.0 mm
09:14 PM 33.3°F0.7°C 30.6°F-0.8°C 90% 1.3 mph NE2.1 kmh NE 4.0 mph6.4 kmh 30.30 in1026.1 mb 0.00 in0.0 mm 0.00 in0.0 mm 0.00 in0.0 mm
09:19 PM 33.3°F0.7°C 30.6°F-0.8°C 90% 1.8 mph NE2.9 kmh NE 2.2 mph3.5 kmh 30.30 in1026.1 mb 0.00 in0.0 mm 0.00 in0.0 mm 0.00 in0.0 mm
09:24 PM 33.3°F0.7°C 30.6°F-0.8°C 90% 1.6 mph NE2.6 kmh NE 2.0 mph3.2 kmh 30.30 in1026.1 mb 0.00 in0.0 mm 0.00 in0.0 mm 0.00 in0.0 mm
09:29 PM 33.4°F0.8°C 31.1°F-0.5°C 91% 1.6 mph ENE2.6 kmh ENE 3.6 mph5.8 kmh 30.30 in1026.1 mb 0.00 in0.0 mm 0.00 in0.0 mm 0.00 in0.0 mm
09:34 PM 33.6°F0.9°C 30.9°F-0.6°C 90% 1.3 mph NE2.1 kmh NE 1.6 mph2.6 kmh 30.30 in1026.1 mb 0.00 in0.0 mm 0.00 in0.0 mm 0.00 in0.0 mm
09:39 PM 33.6°F0.9°C 30.9°F-0.6°C 90% 1.8 mph NE2.9 kmh NE 2.5 mph4.0 kmh 30.30 in1026.1 mb 0.00 in0.0 mm 0.00 in0.0 mm 0.00 in0.0 mm
09:44 PM 33.6°F0.9°C 31.3°F-0.4°C 91% 1.3 mph N2.1 kmh N 1.8 mph2.9 kmh 30.30 in1026.1 mb 0.00 in0.0 mm 0.00 in0.0 mm 0.00 in0.0 mm
09:49 PM 33.6°F0.9°C 30.9°F-0.6°C 90% 1.3 mph NE2.1 kmh NE 1.8 mph2.9 kmh 30.30 in1026.1 mb 0.00 in0.0 mm 0.00 in0.0 mm 0.00 in0.0 mm
09:54 PM 33.6°F0.9°C 30.9°F-0.6°C 90% 2.0 mph N3.2 kmh N 2.7 mph4.3 kmh 30.30 in1026.1 mb 0.00 in0.0 mm 0.00 in0.0 mm 0.00 in0.0 mm
09:59 PM 33.4°F0.8°C 30.7°F-0.7°C 90% 1.6 mph NE2.6 kmh NE 1.8 mph2.9 kmh 30.30 in1026.1 mb 0.00 in0.0 mm 0.00 in0.0 mm 0.00 in0.0 mm
10:04 PM 33.6°F0.9°C 30.9°F-0.6°C 90% 0.9 mph N1.4 kmh N 1.8 mph2.9 kmh 30.30 in1026.1 mb 0.00 in0.0 mm 0.00 in0.0 mm 0.00 in0.0 mm
10:09 PM 33.6°F0.9°C 30.9°F-0.6°C 90% 1.1 mph NNE1.8 kmh NNE 1.6 mph2.6 kmh 30.30 in1026.1 mb 0.00 in0.0 mm 0.00 in0.0 mm 0.00 in0.0 mm
10:14 PM 33.4°F0.8°C 30.7°F-0.7°C 90% 0.9 mph NE1.4 kmh NE 1.6 mph2.6 kmh 30.30 in1026.1 mb 0.00 in0.0 mm 0.00 in0.0 mm 0.00 in0.0 mm
10:19 PM 33.6°F0.9°C 30.9°F-0.6°C 90% 1.1 mph NE1.8 kmh NE 1.8 mph2.9 kmh 30.29 in1025.7 mb 0.00 in0.0 mm 0.00 in0.0 mm 0.00 in0.0 mm
10:24 PM 33.4°F0.8°C 30.7°F-0.7°C 90% 1.1 mph NE1.8 kmh NE 1.6 mph2.6 kmh 30.29 in1025.7 mb 0.00 in0.0 mm 0.00 in0.0 mm 0.00 in0.0 mm
10:29 PM 33.4°F0.8°C 30.7°F-0.7°C 90% 1.1 mph ENE1.8 kmh ENE 1.8 mph2.9 kmh 30.30 in1026.1 mb 0.00 in0.0 mm 0.00 in0.0 mm 0.00 in0.0 mm
10:34 PM 33.4°F0.8°C 30.7°F-0.7°C 90% 1.6 mph ENE2.6 kmh ENE 2.7 mph4.3 kmh 30.29 in1025.7 mb 0.00 in0.0 mm 0.00 in0.0 mm 0.00 in0.0 mm
10:39 PM 33.3°F0.7°C 30.6°F-0.8°C 90% 1.1 mph NE1.8 kmh NE 1.6 mph2.6 kmh 30.29 in1025.7 mb 0.00 in0.0 mm 0.00 in0.0 mm 0.00 in0.0 mm
10:44 PM 32.9°F0.5°C 30.2°F-1.0°C 90% 0.9 mph N1.4 kmh N 1.6 mph2.6 kmh 30.29 in1025.7 mb 0.00 in0.0 mm 0.00 in0.0 mm 0.00 in0.0 mm
10:49 PM 32.9°F0.5°C 30.2°F-1.0°C 90% 0.2 mph NNE0.3 kmh NNE 0.9 mph1.4 kmh 30.29 in1025.7 mb 0.00 in0.0 mm 0.00 in0.0 mm 0.00 in0.0 mm
10:54 PM 33.3°F0.7°C 30.9°F-0.6°C 91% 1.1 mph NE1.8 kmh NE 1.6 mph2.6 kmh 30.29 in1025.7 mb 0.00 in0.0 mm 0.00 in0.0 mm 0.00 in0.0 mm
10:59 PM 33.1°F0.6°C 30.4°F-0.9°C 90% 1.1 mph NNE1.8 kmh NNE 1.6 mph2.6 kmh 30.29 in1025.7 mb 0.00 in0.0 mm 0.00 in0.0 mm 0.00 in0.0 mm
11:04 PM 32.9°F0.5°C 30.6°F-0.8°C 91% 1.1 mph NE1.8 kmh NE 1.3 mph2.1 kmh 30.29 in1025.7 mb 0.00 in0.0 mm 0.00 in0.0 mm 0.00 in0.0 mm
11:09 PM 33.1°F0.6°C 30.7°F-0.7°C 91% 1.1 mph ENE1.8 kmh ENE 1.6 mph2.6 kmh 30.29 in1025.7 mb 0.00 in0.0 mm 0.00 in0.0 mm 0.00 in0.0 mm
11:14 PM 33.3°F0.7°C 30.9°F-0.6°C 91% 1.6 mph NE2.6 kmh NE 2.0 mph3.2 kmh 30.29 in1025.7 mb 0.00 in0.0 mm 0.00 in0.0 mm 0.00 in0.0 mm
11:19 PM 33.3°F0.7°C 30.6°F-0.8°C 90% 0.4 mph NE0.6 kmh NE 1.3 mph2.1 kmh 30.29 in1025.7 mb 0.00 in0.0 mm 0.00 in0.0 mm 0.00 in0.0 mm
11:24 PM 33.3°F0.7°C 30.6°F-0.8°C 90% 1.1 mph NE1.8 kmh NE 1.6 mph2.6 kmh 30.29 in1025.7 mb 0.00 in0.0 mm 0.00 in0.0 mm 0.00 in0.0 mm
11:29 PM 33.3°F0.7°C 30.6°F-0.8°C 90% 0.4 mph NE0.6 kmh NE 0.9 mph1.4 kmh 30.29 in1025.7 mb 0.00 in0.0 mm 0.00 in0.0 mm 0.00 in0.0 mm
11:34 PM 33.3°F0.7°C 30.6°F-0.8°C 90% 0.4 mph N0.6 kmh N 1.1 mph1.8 kmh 30.29 in1025.7 mb 0.00 in0.0 mm 0.00 in0.0 mm 0.00 in0.0 mm
11:39 PM 33.1°F0.6°C 30.4°F-0.9°C 90% 1.1 mph ENE1.8 kmh ENE 1.6 mph2.6 kmh 30.29 in1025.7 mb 0.00 in0.0 mm 0.00 in0.0 mm 0.00 in0.0 mm
11:44 PM 33.3°F0.7°C 30.6°F-0.8°C 90% 0.9 mph NE1.4 kmh NE 1.1 mph1.8 kmh 30.29 in1025.7 mb 0.00 in0.0 mm 0.00 in0.0 mm 0.00 in0.0 mm
11:49 PM 33.4°F0.8°C 30.7°F-0.7°C 90% 0.9 mph NE1.4 kmh NE 1.1 mph1.8 kmh 30.29 in1025.7 mb 0.00 in0.0 mm 0.00 in0.0 mm 0.00 in0.0 mm
11:54 PM 33.3°F0.7°C 30.6°F-0.8°C 90% 0.9 mph NE1.4 kmh NE 1.6 mph2.6 kmh 30.30 in1026.1 mb 0.00 in0.0 mm 0.00 in0.0 mm 0.00 in0.0 mm
11:59 PM 33.3°F0.7°C 30.6°F-0.8°C 90% 1.3 mph N2.1 kmh N 1.8 mph2.9 kmh 30.30 in1026.1 mb 0.00 in0.0 mm 0.00 in0.0 mm 0.00 in0.0 mm